Time;durP1;ratioP1;P1;durP2;ratioP2;P2;SDS_P1;SDS_P2;PMS_P1;PMS_P2;Temp;Humidity;BMP_temperature;BMP_pressure;BME280_temperature;BME280_humidity;BME280_pressure;Samples;Min_cycle;Max_cycle;Signal;HPM_P1;HPM_P2
2022/03/24 00:00:31;;;;;;;42.58;24.65;;;;;;;;;;4952514;28;20051;-84
2022/03/24 00:02:57;;;;;;;43.40;25.33;;;;;;;;;;4968004;28;20500;-84
2022/03/24 00:05:23;;;;;;;46.30;26.38;;;;;;;;;;4951379;28;20031;-84
2022/03/24 00:07:48;;;;;;;44.75;25.13;;;;;;;;;;4968021;28;20508;-84
2022/03/24 00:10:14;;;;;;;48.65;26.25;;;;;;;;;;4966843;28;20070;-84
2022/03/24 00:12:40;;;;;;;43.45;25.40;;;;;;;;;;4948499;28;20583;-84
2022/03/24 00:15:07;;;;;;;50.92;26.23;;;;;;;;;;4955800;28;20507;-84
2022/03/24 00:17:33;;;;;;;41.28;24.60;;;;;;;;;;4964525;28;20035;-84
2022/03/24 00:20:00;;;;;;;41.22;25.38;;;;;;;;;;4953558;28;20046;-84
2022/03/24 00:22:26;;;;;;;40.50;25.45;;;;;;;;;;4944629;28;20039;-84
2022/03/24 00:24:52;;;;;;;45.05;26.05;;;;;;;;;;4927525;29;20390;-83
2022/03/24 00:27:18;;;;;;;44.33;24.67;;;;;;;;;;4942176;28;20031;-83
2022/03/24 00:29:45;;;;;;;43.05;25.67;;;;;;;;;;4953959;28;20543;-83
2022/03/24 00:32:11;;;;;;;42.17;25.45;;;;;;;;;;4953244;28;20408;-83
2022/03/24 00:34:37;;;;;;;44.92;26.48;;;;;;;;;;4950327;28;20320;-84
2022/03/24 00:37:04;;;;;;;44.08;25.23;;;;;;;;;;4948516;28;20122;-83
2022/03/24 00:39:33;;;;;;;44.78;26.48;;;;;;;;;;4946856;28;20031;-83
2022/03/24 00:42:02;;;;;;;41.30;25.10;;;;;;;;;;4956022;28;20047;-84
2022/03/24 00:44:28;;;;;;;43.50;26.40;;;;;;;;;;4928561;28;20038;-83
2022/03/24 00:46:55;;;;;;;45.35;26.90;;;;;;;;;;4951643;28;20051;-83
2022/03/24 00:49:21;;;;;;;42.53;25.83;;;;;;;;;;4956057;28;20031;-83
2022/03/24 00:51:48;;;;;;;46.72;26.00;;;;;;;;;;4964482;28;20035;-83
2022/03/24 00:54:14;;;;;;;45.25;26.77;;;;;;;;;;4947360;28;20119;-84
2022/03/24 00:56:40;;;;;;;46.47;27.25;;;;;;;;;;4947367;28;20035;-83
2022/03/24 00:59:06;;;;;;;48.30;28.10;;;;;;;;;;4941274;28;20039;-84
2022/03/24 01:01:32;;;;;;;42.92;27.27;;;;;;;;;;4947195;28;20119;-83
2022/03/24 01:03:57;;;;;;;46.53;25.65;;;;;;;;;;4940839;28;20040;-83
2022/03/24 01:06:26;;;;;;;44.17;27.60;;;;;;;;;;4938422;28;20043;-83
2022/03/24 01:08:52;;;;;;;50.00;26.77;;;;;;;;;;4950176;28;20043;-84
2022/03/24 01:11:18;;;;;;;42.17;26.17;;;;;;;;;;4947832;28;20050;-83
2022/03/24 01:13:44;;;;;;;43.47;25.80;;;;;;;;;;4942746;28;20034;-83
2022/03/24 01:16:10;;;;;;;43.08;25.85;;;;;;;;;;4942630;28;20412;-83
2022/03/24 01:18:37;;;;;;;40.72;26.08;;;;;;;;;;4943065;28;20055;-83
2022/03/24 01:21:04;;;;;;;45.13;26.08;;;;;;;;;;4948853;28;20043;-83
2022/03/24 01:23:31;;;;;;;47.25;26.13;;;;;;;;;;4975865;28;20501;-83
2022/03/24 01:25:59;;;;;;;43.78;26.25;;;;;;;;;;4979122;28;20039;-83
2022/03/24 01:28:25;;;;;;;42.60;24.23;;;;;;;;;;4964118;28;20042;-83
2022/03/24 01:30:51;;;;;;;46.00;27.30;;;;;;;;;;4942232;28;20063;-83
2022/03/24 01:33:17;;;;;;;48.20;26.27;;;;;;;;;;4958016;28;20051;-83
2022/03/24 01:35:44;;;;;;;44.97;26.15;;;;;;;;;;4965163;28;20090;-83
2022/03/24 01:38:10;;;;;;;43.33;25.27;;;;;;;;;;4950368;28;20043;-83
2022/03/24 01:40:36;;;;;;;44.97;26.95;;;;;;;;;;4963297;28;20055;-83
2022/03/24 01:43:02;;;;;;;45.75;26.00;;;;;;;;;;4936770;28;20525;-83
2022/03/24 01:45:28;;;;;;;44.05;25.67;;;;;;;;;;4936960;28;20043;-83
2022/03/24 01:47:53;;;;;;;42.15;24.90;;;;;;;;;;4957219;28;20039;-83
2022/03/24 01:50:19;;;;;;;45.13;25.33;;;;;;;;;;4942375;28;20098;-83
2022/03/24 01:52:45;;;;;;;45.10;24.75;;;;;;;;;;4927118;28;20473;-83
2022/03/24 01:55:13;;;;;;;41.08;24.77;;;;;;;;;;4944920;28;20573;-83
2022/03/24 01:57:39;;;;;;;47.42;26.33;;;;;;;;;;4949712;28;20069;-83
2022/03/24 02:00:06;;;;;;;44.38;24.65;;;;;;;;;;4948506;28;20044;-83
2022/03/24 02:02:32;;;;;;;45.28;25.65;;;;;;;;;;4953143;28;20039;-84
2022/03/24 02:04:58;;;;;;;45.20;24.75;;;;;;;;;;4970672;28;20114;-83
2022/03/24 02:07:24;;;;;;;41.88;25.80;;;;;;;;;;4950845;28;20287;-83
2022/03/24 02:09:50;;;;;;;46.10;25.75;;;;;;;;;;4944166;28;20074;-83
2022/03/24 02:12:15;;;;;;;44.47;26.02;;;;;;;;;;4948452;28;20051;-83
2022/03/24 02:14:42;;;;;;;47.17;25.33;;;;;;;;;;4949366;28;20130;-83
2022/03/24 02:17:08;;;;;;;48.58;26.58;;;;;;;;;;4950019;28;20031;-83
2022/03/24 02:19:36;;;;;;;48.28;26.90;;;;;;;;;;4949843;28;20031;-83
2022/03/24 02:22:15;;;;;;;50.75;28.27;;;;;;;;;;4959443;28;20122;-83
2022/03/24 02:24:42;;;;;;;45.85;26.60;;;;;;;;;;4977839;28;20122;-83
2022/03/24 02:27:08;;;;;;;46.53;26.52;;;;;;;;;;4951033;28;20043;-83
2022/03/24 02:29:35;;;;;;;49.03;26.75;;;;;;;;;;4944615;28;20048;-83
2022/03/24 02:32:04;;;;;;;47.63;26.48;;;;;;;;;;4942509;28;20046;-83
2022/03/24 02:34:47;;;;;;;46.65;26.15;;;;;;;;;;4933567;28;20055;-83
2022/03/24 02:37:22;;;;;;;48.58;26.95;;;;;;;;;;4999684;28;20039;-83
2022/03/24 02:39:49;;;;;;;46.55;25.75;;;;;;;;;;4949827;28;20507;-83
2022/03/24 02:42:18;;;;;;;53.35;28.35;;;;;;;;;;4951783;28;20060;-83
2022/03/24 02:44:46;;;;;;;46.47;26.08;;;;;;;;;;4968749;28;20588;-83
2022/03/24 02:47:12;;;;;;;50.53;26.73;;;;;;;;;;4952404;28;20034;-83
2022/03/24 02:49:39;;;;;;;47.75;25.92;;;;;;;;;;4951019;28;20031;-83
2022/03/24 02:52:06;;;;;;;46.53;25.60;;;;;;;;;;4952093;28;20062;-83
2022/03/24 02:54:32;;;;;;;43.28;24.67;;;;;;;;;;4952089;28;20035;-83
2022/03/24 02:56:58;;;;;;;46.55;26.45;;;;;;;;;;4951616;28;20074;-83
2022/03/24 02:59:24;;;;;;;43.33;24.70;;;;;;;;;;4963462;28;20401;-83
2022/03/24 03:02:07;;;;;;;47.80;24.98;;;;;;;;;;4943294;28;20051;-83
2022/03/24 03:04:34;;;;;;;46.13;26.10;;;;;;;;;;4946608;28;20039;-83
2022/03/24 03:07:02;;;;;;;46.30;25.77;;;;;;;;;;4940071;28;20046;-83
2022/03/24 03:09:29;;;;;;;46.85;25.77;;;;;;;;;;4951764;28;20431;-82
2022/03/24 03:11:56;;;;;;;46.28;26.15;;;;;;;;;;4956894;28;20043;-83
2022/03/24 03:14:22;;;;;;;44.53;26.58;;;;;;;;;;4946135;28;20487;-83
2022/03/24 03:16:48;;;;;;;44.97;25.98;;;;;;;;;;4944078;28;20047;-82
2022/03/24 03:19:17;;;;;;;47.80;26.35;;;;;;;;;;4950565;28;20540;-82
2022/03/24 03:21:43;;;;;;;47.83;26.35;;;;;;;;;;4961438;28;20094;-82
2022/03/24 03:24:12;;;;;;;50.25;26.88;;;;;;;;;;4950466;28;20558;-82
2022/03/24 03:26:38;;;;;;;50.50;27.85;;;;;;;;;;4945636;28;20049;-82
2022/03/24 03:29:06;;;;;;;47.28;26.92;;;;;;;;;;4961237;28;20046;-82
2022/03/24 03:31:34;;;;;;;51.08;27.10;;;;;;;;;;4965215;28;20609;-81
2022/03/24 03:34:00;;;;;;;53.53;28.73;;;;;;;;;;4973214;28;20043;-81
2022/03/24 03:36:26;;;;;;;48.90;27.60;;;;;;;;;;4953455;28;20069;-81
2022/03/24 03:38:51;;;;;;;51.13;28.00;;;;;;;;;;4951836;28;20051;-81
2022/03/24 03:41:22;;;;;;;54.75;27.85;;;;;;;;;;4968201;28;20039;-81
2022/03/24 03:43:48;;;;;;;51.22;27.83;;;;;;;;;;4950342;28;20435;-81
2022/03/24 03:46:15;;;;;;;53.42;28.80;;;;;;;;;;4951282;28;20035;-81
2022/03/24 03:48:41;;;;;;;51.80;27.50;;;;;;;;;;4949177;28;20039;-81
2022/03/24 03:51:07;;;;;;;48.55;26.05;;;;;;;;;;4969275;28;20105;-81
2022/03/24 03:53:34;;;;;;;53.80;27.77;;;;;;;;;;4948860;28;20420;-81
2022/03/24 03:56:00;;;;;;;52.17;28.42;;;;;;;;;;4945167;28;20094;-82
2022/03/24 03:58:26;;;;;;;49.13;26.88;;;;;;;;;;4951851;28;20041;-82
2022/03/24 04:00:52;;;;;;;48.10;28.25;;;;;;;;;;4948766;28;20482;-82
2022/03/24 04:03:18;;;;;;;52.97;27.35;;;;;;;;;;4966141;28;20270;-82
2022/03/24 04:05:44;;;;;;;54.53;28.27;;;;;;;;;;4943838;28;20401;-82
2022/03/24 04:08:11;;;;;;;47.65;27.25;;;;;;;;;;4947936;28;20067;-82
2022/03/24 04:10:38;;;;;;;52.20;28.52;;;;;;;;;;4946293;28;20440;-82
2022/03/24 04:13:07;;;;;;;47.97;27.50;;;;;;;;;;4956672;28;20054;-82
2022/03/24 04:15:33;;;;;;;51.28;28.35;;;;;;;;;;4942841;28;20500;-82
2022/03/24 04:18:00;;;;;;;51.50;28.50;;;;;;;;;;4952692;28;20039;-82
2022/03/24 04:20:27;;;;;;;54.13;29.13;;;;;;;;;;4931012;28;20039;-82
2022/03/24 04:22:54;;;;;;;53.40;29.00;;;;;;;;;;4946367;28;20035;-82
2022/03/24 04:25:21;;;;;;;52.63;28.17;;;;;;;;;;4942558;28;20039;-82
2022/03/24 04:27:47;;;;;;;51.22;28.58;;;;;;;;;;4949352;28;20493;-82
2022/03/24 04:30:14;;;;;;;53.35;29.27;;;;;;;;;;4932934;28;20057;-82
2022/03/24 04:32:40;;;;;;;49.63;28.67;;;;;;;;;;4935343;28;20062;-82
2022/03/24 04:35:07;;;;;;;51.13;29.10;;;;;;;;;;4958859;28;20043;-82
2022/03/24 04:37:33;;;;;;;51.38;28.15;;;;;;;;;;4932597;28;20051;-82
2022/03/24 04:39:59;;;;;;;56.13;29.88;;;;;;;;;;4949797;28;20182;-82
2022/03/24 04:42:24;;;;;;;50.97;28.40;;;;;;;;;;4946029;28;20097;-81
2022/03/24 04:44:50;;;;;;;55.60;29.70;;;;;;;;;;4958535;28;20069;-81
2022/03/24 04:47:16;;;;;;;56.60;28.77;;;;;;;;;;4948882;28;20078;-82
2022/03/24 04:49:42;;;;;;;52.05;29.58;;;;;;;;;;4943015;28;20043;-81
2022/03/24 04:52:08;;;;;;;54.72;29.02;;;;;;;;;;4948587;28;20389;-82
2022/03/24 04:54:34;;;;;;;56.05;30.23;;;;;;;;;;4950342;28;20089;-82
2022/03/24 04:57:00;;;;;;;57.17;30.25;;;;;;;;;;4935271;29;20045;-82
2022/03/24 04:59:26;;;;;;;50.15;28.38;;;;;;;;;;4931845;28;20042;-82
2022/03/24 05:01:52;;;;;;;52.70;29.08;;;;;;;;;;4945790;28;20066;-81
2022/03/24 05:04:18;;;;;;;52.28;28.38;;;;;;;;;;4946174;28;20062;-82
2022/03/24 05:06:43;;;;;;;50.80;28.30;;;;;;;;;;4947510;28;20150;-86
2022/03/24 05:09:09;;;;;;;51.10;27.48;;;;;;;;;;4943432;28;20605;-83
2022/03/24 05:11:35;;;;;;;57.13;28.65;;;;;;;;;;4949293;28;20121;-84
2022/03/24 05:14:01;;;;;;;56.13;29.58;;;;;;;;;;4944416;28;20039;-84
2022/03/24 05:16:28;;;;;;;53.75;29.83;;;;;;;;;;4960063;28;20044;-83
2022/03/24 05:18:54;;;;;;;56.17;30.13;;;;;;;;;;4942499;28;20122;-84
2022/03/24 05:21:19;;;;;;;56.50;29.10;;;;;;;;;;4948670;28;20146;-84
2022/03/24 05:23:45;;;;;;;53.00;29.42;;;;;;;;;;4936480;28;20042;-84
2022/03/24 05:26:11;;;;;;;57.30;30.20;;;;;;;;;;4935437;28;20040;-84
2022/03/24 05:28:37;;;;;;;53.45;28.45;;;;;;;;;;4963393;28;20051;-84
2022/03/24 05:31:03;;;;;;;54.78;29.80;;;;;;;;;;4933939;28;20047;-84
2022/03/24 05:33:29;;;;;;;56.17;30.58;;;;;;;;;;4944740;28;20074;-84
2022/03/24 05:35:55;;;;;;;54.28;29.27;;;;;;;;;;4957321;28;20038;-86
2022/03/24 05:38:21;;;;;;;56.80;30.45;;;;;;;;;;4947902;28;20125;-88
2022/03/24 05:40:47;;;;;;;54.78;28.90;;;;;;;;;;4957054;28;20047;-88
2022/03/24 05:43:13;;;;;;;51.65;28.52;;;;;;;;;;4946874;28;20484;-87
2022/03/24 05:45:38;;;;;;;53.20;29.67;;;;;;;;;;4958777;28;20039;-87
2022/03/24 05:48:05;;;;;;;54.30;29.50;;;;;;;;;;4970472;28;20042;-87
2022/03/24 05:50:31;;;;;;;57.40;31.17;;;;;;;;;;4936528;28;20086;-86
2022/03/24 05:52:57;;;;;;;54.88;28.83;;;;;;;;;;4945761;28;20058;-86
2022/03/24 05:55:23;;;;;;;55.10;30.27;;;;;;;;;;4940186;28;20043;-87
2022/03/24 05:57:50;;;;;;;54.03;29.08;;;;;;;;;;4948243;28;20040;-87
2022/03/24 06:00:16;;;;;;;54.20;28.27;;;;;;;;;;4953963;28;20046;-87
2022/03/24 06:02:43;;;;;;;57.65;30.08;;;;;;;;;;4932857;28;20039;-87
2022/03/24 06:05:11;;;;;;;51.42;29.52;;;;;;;;;;4961480;28;20432;-87
2022/03/24 06:07:37;;;;;;;52.70;29.60;;;;;;;;;;4947236;28;20804;-86
2022/03/24 06:10:03;;;;;;;48.58;27.92;;;;;;;;;;4946097;28;20035;-87
2022/03/24 06:12:31;;;;;;;47.55;27.73;;;;;;;;;;4950546;28;20134;-86
2022/03/24 06:14:57;;;;;;;55.25;30.85;;;;;;;;;;4952828;28;20059;-86
2022/03/24 06:17:22;;;;;;;59.95;31.90;;;;;;;;;;4968254;28;24552;-87
2022/03/24 06:19:49;;;;;;;51.08;29.42;;;;;;;;;;4951194;28;20265;-87
2022/03/24 06:22:15;;;;;;;53.65;28.98;;;;;;;;;;4934602;28;20063;-86
2022/03/24 06:24:41;;;;;;;55.05;30.48;;;;;;;;;;4946752;28;20062;-87
2022/03/24 06:27:07;;;;;;;49.38;29.20;;;;;;;;;;4938599;28;20035;-86
2022/03/24 06:29:33;;;;;;;49.35;29.33;;;;;;;;;;4950836;28;20035;-85
2022/03/24 06:31:58;;;;;;;49.75;28.40;;;;;;;;;;4946185;29;20087;-86
2022/03/24 06:34:25;;;;;;;47.72;28.80;;;;;;;;;;4968387;28;20138;-86
2022/03/24 06:36:51;;;;;;;50.13;29.23;;;;;;;;;;4946411;28;20054;-86
2022/03/24 06:39:16;;;;;;;46.72;28.05;;;;;;;;;;4947675;28;20046;-86
2022/03/24 06:41:42;;;;;;;43.78;28.25;;;;;;;;;;4924360;29;20425;-86
2022/03/24 06:44:08;;;;;;;52.38;30.13;;;;;;;;;;4957879;28;20069;-87
2022/03/24 06:46:35;;;;;;;45.45;30.08;;;;;;;;;;4951255;28;20401;-85
2022/03/24 06:49:03;;;;;;;49.95;31.45;;;;;;;;;;4967727;28;20046;-86
2022/03/24 06:51:28;;;;;;;49.45;31.77;;;;;;;;;;4961784;28;20496;-87
2022/03/24 06:53:54;;;;;;;43.10;30.83;;;;;;;;;;4958674;28;20047;-87
2022/03/24 06:56:20;;;;;;;49.75;32.50;;;;;;;;;;4947820;28;20042;-87
2022/03/24 06:58:46;;;;;;;46.58;32.45;;;;;;;;;;4951658;28;20484;-87
2022/03/24 07:01:11;;;;;;;48.47;31.77;;;;;;;;;;4941479;28;20035;-87
2022/03/24 07:03:38;;;;;;;47.75;32.53;;;;;;;;;;4941171;28;20075;-87
2022/03/24 07:06:04;;;;;;;49.08;33.20;;;;;;;;;;4980048;28;20042;-88
2022/03/24 07:08:30;;;;;;;46.28;32.45;;;;;;;;;;4965207;28;20579;-86
2022/03/24 07:10:55;;;;;;;49.42;33.90;;;;;;;;;;4975953;28;20081;-87
2022/03/24 07:13:23;;;;;;;49.22;34.13;;;;;;;;;;4958642;28;20493;-88
2022/03/24 07:15:48;;;;;;;49.50;33.28;;;;;;;;;;4939073;28;20058;-86
2022/03/24 07:18:15;;;;;;;48.05;33.97;;;;;;;;;;4946565;28;20103;-86
2022/03/24 07:20:41;;;;;;;45.88;32.55;;;;;;;;;;4950272;28;20042;-86
2022/03/24 07:23:09;;;;;;;47.13;33.55;;;;;;;;;;4942035;28;20658;-86
2022/03/24 07:25:42;;;;;;;52.78;35.08;;;;;;;;;;4959610;28;20039;-84
2022/03/24 07:28:10;;;;;;;56.00;35.17;;;;;;;;;;4966291;28;20049;-85
2022/03/24 07:30:37;;;;;;;52.85;34.45;;;;;;;;;;4939805;28;20043;-86
2022/03/24 07:33:04;;;;;;;53.72;33.67;;;;;;;;;;4950355;28;20099;-86
2022/03/24 07:35:31;;;;;;;54.60;33.60;;;;;;;;;;4957489;28;20042;-86
2022/03/24 07:37:57;;;;;;;52.10;32.53;;;;;;;;;;4953056;28;20039;-85
2022/03/24 07:40:23;;;;;;;56.35;35.08;;;;;;;;;;4936557;28;20054;-84
2022/03/24 07:42:52;;;;;;;55.95;35.15;;;;;;;;;;4933236;28;20055;-84
2022/03/24 07:45:17;;;;;;;56.45;33.50;;;;;;;;;;4991290;28;20035;-85
2022/03/24 07:48:12;;;;;;;53.08;32.83;;;;;;;;;;4959558;28;20499;-85
2022/03/24 07:50:44;;;;;;;55.50;34.63;;;;;;;;;;4948705;28;20410;-83
2022/03/24 07:53:13;;;;;;;52.70;33.67;;;;;;;;;;4948460;28;20146;-84
2022/03/24 07:55:42;;;;;;;54.75;33.35;;;;;;;;;;4968921;28;20050;-84
2022/03/24 07:58:09;;;;;;;54.63;32.95;;;;;;;;;;4968741;28;20035;-84
2022/03/24 08:00:35;;;;;;;49.75;32.70;;;;;;;;;;4956424;28;20114;-85
2022/03/24 08:03:02;;;;;;;56.60;32.80;;;;;;;;;;4964478;28;20039;-85
2022/03/24 08:05:29;;;;;;;58.40;33.63;;;;;;;;;;4952181;28;20043;-84
2022/03/24 08:07:56;;;;;;;55.08;33.17;;;;;;;;;;4957754;28;20039;-84
2022/03/24 08:10:23;;;;;;;54.47;32.08;;;;;;;;;;4960929;28;20575;-86
2022/03/24 08:12:48;;;;;;;56.78;34.13;;;;;;;;;;4963533;28;20047;-84
2022/03/24 08:15:15;;;;;;;50.13;32.15;;;;;;;;;;4959185;28;20681;-85
2022/03/24 08:17:41;;;;;;;52.45;33.88;;;;;;;;;;4956372;28;20042;-83
2022/03/24 08:20:08;;;;;;;50.58;32.22;;;;;;;;;;4956844;28;20098;-84
2022/03/24 08:22:40;;;;;;;54.67;32.50;;;;;;;;;;4927835;28;20081;-85
2022/03/24 08:25:09;;;;;;;48.97;31.70;;;;;;;;;;4947710;28;20423;-84
2022/03/24 08:27:36;;;;;;;48.78;31.80;;;;;;;;;;4937224;28;20042;-85
2022/03/24 08:30:04;;;;;;;51.17;33.05;;;;;;;;;;4969168;28;20445;-84
2022/03/24 08:32:31;;;;;;;49.95;32.72;;;;;;;;;;4953516;28;20035;-84
2022/03/24 08:34:57;;;;;;;48.35;32.90;;;;;;;;;;4943264;28;20106;-84
2022/03/24 08:37:27;;;;;;;51.03;33.67;;;;;;;;;;4947560;28;20043;-84
2022/03/24 08:39:56;;;;;;;51.78;34.22;;;;;;;;;;4931525;28;20046;-85
2022/03/24 08:42:23;;;;;;;48.92;33.63;;;;;;;;;;4944594;28;20050;-84
2022/03/24 08:44:49;;;;;;;49.15;33.33;;;;;;;;;;4950076;28;20045;-82
2022/03/24 08:47:18;;;;;;;50.25;30.38;;;;;;;;;;4946110;28;20412;-81
2022/03/24 08:49:54;;;;;;;50.28;33.17;;;;;;;;;;4933127;28;20044;-82
2022/03/24 08:52:27;;;;;;;50.00;32.97;;;;;;;;;;4939657;28;20039;-81
2022/03/24 08:54:57;;;;;;;48.88;31.30;;;;;;;;;;4935108;28;20043;-81
2022/03/24 08:57:29;;;;;;;46.45;30.70;;;;;;;;;;4927548;28;20047;-82
2022/03/24 09:00:00;;;;;;;46.55;29.30;;;;;;;;;;4932562;28;20062;-82
2022/03/24 09:02:30;;;;;;;49.10;31.30;;;;;;;;;;4930357;28;20042;-82
2022/03/24 09:04:58;;;;;;;49.22;32.03;;;;;;;;;;4950854;28;20043;-82
2022/03/24 09:07:25;;;;;;;48.47;32.22;;;;;;;;;;4932337;28;20039;-80
2022/03/24 09:09:51;;;;;;;46.63;30.30;;;;;;;;;;4948965;28;20039;-82
2022/03/24 09:12:18;;;;;;;51.65;31.92;;;;;;;;;;4937668;28;20048;-82
2022/03/24 09:14:44;;;;;;;48.42;31.20;;;;;;;;;;4945662;28;20047;-81
2022/03/24 09:17:10;;;;;;;45.20;28.92;;;;;;;;;;4973761;28;20050;-81
2022/03/24 09:19:36;;;;;;;47.90;28.45;;;;;;;;;;4962610;28;20047;-81
2022/03/24 09:22:04;;;;;;;46.25;27.58;;;;;;;;;;4959952;28;20045;-80
2022/03/24 09:24:30;;;;;;;47.25;28.60;;;;;;;;;;4971962;28;20616;-80
2022/03/24 09:26:56;;;;;;;43.50;29.38;;;;;;;;;;4958710;28;20035;-81
2022/03/24 09:29:22;;;;;;;47.28;30.35;;;;;;;;;;4944732;28;20134;-80
2022/03/24 09:31:48;;;;;;;44.67;30.05;;;;;;;;;;4955780;28;20035;-80
2022/03/24 09:34:14;;;;;;;45.75;31.45;;;;;;;;;;4952687;28;20491;-80
2022/03/24 09:36:40;;;;;;;48.28;30.00;;;;;;;;;;4938351;28;20102;-80
2022/03/24 09:39:07;;;;;;;44.35;29.67;;;;;;;;;;4940109;28;20047;-81
2022/03/24 09:41:33;;;;;;;40.72;27.80;;;;;;;;;;4937977;28;20036;-81
2022/03/24 09:43:59;;;;;;;44.65;28.80;;;;;;;;;;4960416;28;20067;-80
2022/03/24 09:46:28;;;;;;;46.75;28.95;;;;;;;;;;4965189;28;20047;-81
2022/03/24 09:48:55;;;;;;;42.28;30.42;;;;;;;;;;4971555;28;20129;-80
2022/03/24 09:51:25;;;;;;;46.10;28.45;;;;;;;;;;4969962;28;20061;-81
2022/03/24 09:53:51;;;;;;;49.78;28.95;;;;;;;;;;4963507;28;20161;-82
2022/03/24 09:56:17;;;;;;;47.28;29.85;;;;;;;;;;4961088;28;20046;-80
2022/03/24 09:58:44;;;;;;;43.03;27.45;;;;;;;;;;4958585;28;20043;-80
2022/03/24 10:01:10;;;;;;;44.33;28.80;;;;;;;;;;4962193;28;20055;-84
2022/03/24 10:03:36;;;;;;;47.28;30.38;;;;;;;;;;4950818;28;20046;-81
2022/03/24 10:06:06;;;;;;;47.65;28.58;;;;;;;;;;4946723;28;20043;-81
2022/03/24 10:08:33;;;;;;;42.83;28.20;;;;;;;;;;4958839;28;20045;-81
2022/03/24 10:11:00;;;;;;;43.30;29.25;;;;;;;;;;4953510;28;20039;-81
2022/03/24 10:13:47;;;;;;;40.20;27.52;;;;;;;;;;4971671;28;20041;-81
2022/03/24 10:16:32;;;;;;;48.08;30.55;;;;;;;;;;4955589;28;20046;-81
2022/03/24 10:19:01;;;;;;;43.67;29.37;;;;;;;;;;4975068;28;20039;-81
2022/03/24 10:21:29;;;;;;;46.67;29.83;;;;;;;;;;4971992;28;20640;-81
2022/03/24 10:23:57;;;;;;;42.22;28.15;;;;;;;;;;4971680;28;20117;-81
2022/03/24 10:26:23;;;;;;;44.42;28.15;;;;;;;;;;4946856;28;20046;-80
2022/03/24 10:28:58;;;;;;;43.08;27.23;;;;;;;;;;4959688;28;20587;-80
2022/03/24 10:31:37;;;;;;;45.00;28.77;;;;;;;;;;4970618;28;20034;-80
2022/03/24 10:34:04;;;;;;;41.50;29.90;;;;;;;;;;4955840;28;20046;-81
2022/03/24 10:36:30;;;;;;;43.85;30.35;;;;;;;;;;4973185;28;20407;-79
2022/03/24 10:39:04;;;;;;;50.92;31.10;;;;;;;;;;4966583;28;20116;-79
2022/03/24 10:41:35;;;;;;;40.35;30.13;;;;;;;;;;4932672;28;20041;-80
2022/03/24 10:44:06;;;;;;;40.63;29.45;;;;;;;;;;4949998;28;20560;-79
2022/03/24 10:46:34;;;;;;;37.85;29.83;;;;;;;;;;4954273;28;20101;-81
2022/03/24 10:49:18;;;;;;;40.08;28.30;;;;;;;;;;4969996;28;20035;-81
2022/03/24 10:51:46;;;;;;;42.03;28.52;;;;;;;;;;4935217;28;20629;-80
2022/03/24 10:54:38;;;;;;;37.55;28.65;;;;;;;;;;4966099;28;20054;-81
2022/03/24 10:57:08;;;;;;;39.08;29.65;;;;;;;;;;4961061;28;20564;-80
2022/03/24 10:59:42;;;;;;;36.58;28.98;;;;;;;;;;4968975;28;20039;-79
2022/03/24 11:02:14;;;;;;;36.28;29.85;;;;;;;;;;4951548;28;20124;-80
2022/03/24 11:04:43;;;;;;;35.85;25.73;;;;;;;;;;4968282;28;20065;-79
2022/03/24 11:07:09;;;;;;;35.70;28.45;;;;;;;;;;4965233;28;20043;-80
2022/03/24 11:09:35;;;;;;;40.33;29.90;;;;;;;;;;4949873;28;20046;-81
2022/03/24 11:12:28;;;;;;;39.30;29.67;;;;;;;;;;4951855;28;20054;-81
2022/03/24 11:14:58;;;;;;;35.28;27.45;;;;;;;;;;4952695;28;20046;-80
2022/03/24 11:17:30;;;;;;;35.72;26.02;;;;;;;;;;4953414;28;20035;-81
2022/03/24 11:20:04;;;;;;;36.13;27.08;;;;;;;;;;4953039;28;20050;-80
2022/03/24 11:22:50;;;;;;;40.08;28.95;;;;;;;;;;4939177;28;20050;-80
2022/03/24 11:25:17;;;;;;;;;;;;;;;;;;4969128;28;20135;-81
2022/03/24 11:27:43;;;;;;;36.45;26.52;;;;;;;;;;4981575;28;20005;-81
2022/03/24 11:30:12;;;;;;;33.05;23.95;;;;;;;;;;4940804;28;20043;-80
2022/03/24 11:32:40;;;;;;;28.02;20.20;;;;;;;;;;4953639;28;20097;-81
2022/03/24 11:35:07;;;;;;;34.83;25.73;;;;;;;;;;4951874;28;20114;-81
2022/03/24 11:37:34;;;;;;;36.90;26.73;;;;;;;;;;4983612;28;20118;-80
2022/03/24 11:40:16;;;;;;;34.42;25.17;;;;;;;;;;4956143;28;20038;-80
2022/03/24 11:42:51;;;;;;;27.63;22.90;;;;;;;;;;4949600;28;20035;-80
2022/03/24 11:45:22;;;;;;;30.70;23.37;;;;;;;;;;4967563;28;20098;-80
2022/03/24 11:48:00;;;;;;;28.15;23.20;;;;;;;;;;4974468;28;20150;-80
2022/03/24 11:50:49;;;;;;;27.38;21.15;;;;;;;;;;4967055;28;20542;-80
2022/03/24 11:53:35;;;;;;;26.98;20.92;;;;;;;;;;4965333;28;20128;-80
2022/03/24 11:56:03;;;;;;;24.95;19.83;;;;;;;;;;4950223;28;20470;-80
2022/03/24 11:58:54;;;;;;;27.27;19.55;;;;;;;;;;4949052;28;20057;-80
2022/03/24 12:01:19;;;;;;;23.77;17.13;;;;;;;;;;4962121;28;20338;-81
2022/03/24 12:03:54;;;;;;;25.27;16.60;;;;;;;;;;4964983;28;20103;-80
2022/03/24 12:06:20;;;;;;;24.98;18.52;;;;;;;;;;4947118;28;20125;-80
2022/03/24 12:08:52;;;;;;;23.25;18.52;;;;;;;;;;4967408;28;20057;-81
2022/03/24 12:11:33;;;;;;;21.88;17.05;;;;;;;;;;4958313;28;20349;-80
2022/03/24 12:14:00;;;;;;;24.40;17.95;;;;;;;;;;4969580;28;20062;-80
2022/03/24 12:16:27;;;;;;;27.05;19.63;;;;;;;;;;4992959;28;22741;-81
2022/03/24 12:18:53;;;;;;;24.73;15.57;;;;;;;;;;4967097;28;20340;-80
2022/03/24 12:21:24;;;;;;;24.27;14.05;;;;;;;;;;4948609;28;20121;-80
2022/03/24 12:24:08;;;;;;;26.50;16.17;;;;;;;;;;4943562;28;20085;-79
2022/03/24 12:26:51;;;;;;;25.88;15.20;;;;;;;;;;4955514;28;20130;-79
2022/03/24 12:29:21;;;;;;;31.05;17.30;;;;;;;;;;4939286;28;20321;-80
2022/03/24 12:32:03;;;;;;;28.60;17.42;;;;;;;;;;4959522;28;20432;-80
2022/03/24 12:34:38;;;;;;;27.63;17.13;;;;;;;;;;4969873;28;20061;-79
2022/03/24 12:37:04;;;;;;;27.65;16.80;;;;;;;;;;4966678;28;20053;-79
2022/03/24 12:39:37;;;;;;;23.63;16.52;;;;;;;;;;4935952;28;20079;-79
2022/03/24 12:42:04;;;;;;;26.48;15.70;;;;;;;;;;4948643;28;20030;-83
2022/03/24 12:44:53;;;;;;;31.05;16.38;;;;;;;;;;4938079;28;20094;-81
2022/03/24 12:47:37;;;;;;;24.58;14.98;;;;;;;;;;4984517;28;20042;-79
2022/03/24 12:50:21;;;;;;;22.95;15.30;;;;;;;;;;4957441;28;20481;-79
2022/03/24 12:52:52;;;;;;;29.83;15.95;;;;;;;;;;4966256;28;20113;-79
2022/03/24 12:55:31;;;;;;;26.05;16.90;;;;;;;;;;4943337;28;20316;-79
2022/03/24 12:57:59;;;;;;;25.98;17.00;;;;;;;;;;4966173;28;20570;-79
2022/03/24 13:00:27;;;;;;;26.50;19.33;;;;;;;;;;4961399;28;20027;-79
2022/03/24 13:02:54;;;;;;;22.98;17.45;;;;;;;;;;4948644;28;20066;-79
2022/03/24 13:05:24;;;;;;;27.13;18.92;;;;;;;;;;4959958;28;20079;-80
2022/03/24 13:07:52;;;;;;;27.08;19.85;;;;;;;;;;4941444;28;20107;-78
2022/03/24 13:10:22;;;;;;;30.13;22.60;;;;;;;;;;4934125;28;20043;-80
2022/03/24 13:12:50;;;;;;;38.33;24.20;;;;;;;;;;4938958;28;20043;-79
2022/03/24 13:15:41;;;;;;;33.50;23.75;;;;;;;;;;4944887;28;20034;-78
2022/03/24 13:18:09;;;;;;;28.13;19.60;;;;;;;;;;4948396;28;20041;-80
2022/03/24 13:20:45;;;;;;;29.45;21.60;;;;;;;;;;4938545;28;20043;-80
2022/03/24 13:23:12;;;;;;;31.05;22.17;;;;;;;;;;4971349;28;20126;-80
2022/03/24 13:25:41;;;;;;;31.50;22.33;;;;;;;;;;4953888;28;20035;-82
2022/03/24 13:28:07;;;;;;;32.88;23.08;;;;;;;;;;4940807;28;20059;-80
2022/03/24 13:30:34;;;;;;;35.38;22.83;;;;;;;;;;4947512;28;20058;-81
2022/03/24 13:33:03;;;;;;;31.75;21.83;;;;;;;;;;4937222;28;20050;-79
2022/03/24 13:35:34;;;;;;;31.67;21.60;;;;;;;;;;4961958;28;20105;-81
2022/03/24 13:38:01;;;;;;;38.58;23.55;;;;;;;;;;4941378;28;20114;-79
2022/03/24 13:40:38;;;;;;;31.95;22.63;;;;;;;;;;4944935;28;20119;-80
2022/03/24 13:43:05;;;;;;;37.28;23.35;;;;;;;;;;4948971;28;20546;-81
2022/03/24 13:45:32;;;;;;;35.38;22.50;;;;;;;;;;4958069;28;20043;-80
2022/03/24 13:48:14;;;;;;;28.92;22.60;;;;;;;;;;4936090;28;20042;-81
2022/03/24 13:50:42;;;;;;;27.58;19.95;;;;;;;;;;4949424;28;20049;-81
2022/03/24 13:53:16;;;;;;;24.98;19.45;;;;;;;;;;4965621;28;20062;-80
2022/03/24 13:55:41;;;;;;;28.48;19.60;;;;;;;;;;4950414;28;20039;-80
2022/03/24 13:58:09;;;;;;;29.42;20.67;;;;;;;;;;4951906;28;20101;-80
2022/03/24 14:00:48;;;;;;;29.05;20.55;;;;;;;;;;4955199;28;20101;-80
2022/03/24 14:03:21;;;;;;;28.63;21.25;;;;;;;;;;4952032;28;20036;-80
2022/03/24 14:05:58;;;;;;;27.00;19.05;;;;;;;;;;4965035;28;20047;-81
2022/03/24 14:08:26;;;;;;;25.65;19.58;;;;;;;;;;4981557;28;20039;-81
2022/03/24 14:10:54;;;;;;;27.38;19.15;;;;;;;;;;4954405;28;20047;-81
2022/03/24 14:13:26;;;;;;;27.27;20.17;;;;;;;;;;4962380;28;20076;-81
2022/03/24 14:16:06;;;;;;;29.90;19.65;;;;;;;;;;4932549;28;20623;-82
2022/03/24 14:18:32;;;;;;;29.13;20.42;;;;;;;;;;4969126;28;20049;-81
2022/03/24 14:20:58;;;;;;;27.88;20.92;;;;;;;;;;4979057;28;20516;-81
2022/03/24 14:23:34;;;;;;;27.25;19.30;;;;;;;;;;4953566;28;20484;-81
2022/03/24 14:26:06;;;;;;;27.92;19.80;;;;;;;;;;4980615;28;20402;-81